Aérodrome :
LOGIN :

S'inscrire | Disclaimer

   EN    FR    IT 

 










Légende :    VFR   VFR Marginal   IFR   IFR Intensif   IFR Très Intensif
Visi : 
Plafond : 
>= 8 km
>= 3000ft
5 à 8 km
1000 à 3000 ft
1500m à 5 km
500 à 1000 ft
800 à 1500m
200 à 500 ft
< 800m
< 200 ft
Symboles :   Orages  Brouillard  Fortes neiges  Fortes précipitations  Vent > 20 kt
SIGMETs :   Divers  Orages  Givrage  Turbulence  Onde Orograph.  Cendres Volcan.






- Altitude de l'aérodrome : -11 ft
- Code IATA : AMS


EHAM - Amsterdam Schiphol

DERNIER METAR :
  • 070055Z VRB02KT 8000 NSC 06/06 Q1027 BECMG 7000

METARs EXPIRÉS :
  • 070025Z 22004KT 200V260 8000 NSC 06/06 Q1027 BECMG 7000
  • 062355Z 26003KT 9000 NSC 07/06 Q1027 BECMG 7000
  • 062325Z 27004KT 9000 NSC 08/07 Q1027 BECMG 7000
  • 062255Z 26004KT CAVOK 08/07 Q1026 BECMG 7000
  • 062225Z 24005KT CAVOK 09/07 Q1025 BECMG 7000
  • 062155Z 26006KT CAVOK 09/08 Q1025 BECMG 7000

TAF COR TAF EHAM
Valide du 07 à 00h jusqu'au 08 à 06h UTC


062258Z 0700/0806 26004KT CAVOK
BECMG 0700/0703 VRB03KT 4000 MIFG BR NSC
PROB30 0703/0707 1400 BCFG
BECMG 0706/0709 10007KT CAVOK



MET'MAP, la Météo Aéronautique d'un coup d'oeil ! - Copyright ORBIFLY Décembre 2007 - Disclaimer

ORBIFLY MET'MAP TEAM :

Programmation & Développement : Alexandra Zaïnal
Sur une idée originale de : Baudouin d'Aumeries
Assistance à la programmation : Marc-Olivier Méhu
Soutien technique & logistique : Manuel Goepfert

Contact : metmap@orbifly.com




SOURCES & CREDITS :

   NOAA